Terminal Aerodrome Forecast
Issued by NWS

Home | Current Version | Previous Version | Text Only | Print | Product List | Glossary On
Versions: 1 2 3 4 5 6 7 8 9 10 11 12 13 14 15 16 17 18 19 20 21
600
FTUS46 KPDT 251120
TAFPSC
TAF
KPSC 251120Z 2512/2612 25005KT P6SM SKC
     FM251300 VRB03KT 6SM BR FEW150 SCT250
     FM251800 VRB04KT P6SM BKN100 OVC200
     FM252300 35005KT P6SM VCSH BKN050 OVC100
     FM260600 30003KT 6SM BR SCT050 BKN100=

USA.gov is the U.S. government's official web portal to all federal, state and local government web resources and services.